Indianapolis, Indiana
Traffic Map
Current Weather Conditions
Indianapolis, Indiana
Scattered Clouds
Scattered Clouds
39°
Feels Like: 30°
Wind Chill: 30° Ceiling: Unl
Heat Index: 39° Visibility: 10mi
Dew Point: 15° Wind: 16mph
Humidity: 38% Direction: 190° (S)
Pressure: 30.16in Gusts: 0mph
Raw Report DataKIND 261654Z 19014KT 10SM SCT250 04/M09 A3016 RMK AO2 SLP221 T00391094
Traffic Incident Summary
Active as of:
Severity:
Category:
InformationThere was an issue retrieving the traffic information for this location. Please try a different location or try again shortly.
Advertisements
Track Severe Weather on mobile